Rhapsody Of The Seas — C6UA2 — position and weather

sailwx.info

Track history (hours):
 
Tides and Currents Weather Stations Pressure Air Temp Water Temp Dewpoint Dewpoint Depression Visibility Wind Speed Wind Dir Waves Ship Positions

Rhapsody Of The Seas

Last reported at 2018-May-26 13:58 UTC. Time now 2018-May-26 14:02 UTC.
Position N 45°26' E 012°19'.

Type: Passenger vessel. MMSI: 311805000.

Date/timePositionNaut miles runAvg speedWind from/ knotsBaromVisibWave heightAir tempDewpointWater temp
2018-May-26 13:58N 45°26' E 012°19'0 0.0
2018-May-26 13:28N 45°26' E 012°19'0 0.0
2018-May-26 12:58N 45°26' E 012°19'0 0.0
2018-May-26 12:28N 45°26' E 012°19'0 0.0
2018-May-26 11:58N 45°26' E 012°19'0 0.0
2018-May-26 11:28N 45°26' E 012°19'0 0.0
2018-May-26 10:58N 45°26' E 012°19'0 0.0
2018-May-26 10:28N 45°26' E 012°19'0 0.0
2018-May-26 09:58N 45°26' E 012°19'0 0.0
2018-May-26 09:28N 45°26' E 012°19'0 0.0
2018-May-26 08:58N 45°26' E 012°19'0 0.0
2018-May-26 08:28N 45°26' E 012°19'0 0.0
2018-May-26 07:58N 45°26' E 012°19'0 0.0
2018-May-26 07:28N 45°26' E 012°19'0 0.0
2018-May-26 06:58N 45°26' E 012°19'0 0.0
2018-May-26 06:28N 45°26' E 012°19'0 0.0
2018-May-26 05:28N 45°26' E 012°19'0 0.0
2018-May-26 04:58N 45°26' E 012°19'0 0.3
2018-May-26 04:30N 45°26' E 012°19'1 2.8
2018-May-26 04:00N 45°26' E 012°21'3 5.6
2018-May-26 03:31N 45°26' E 012°24'612.0
2018-May-26 03:00N 45°23' E 012°32'714.6
2018-May-26 02:30N 45°18' E 012°39'815.2
2018-May-26 02:00N 45°13' E 012°48'917.2
2018-May-26 01:30N 45°09' E 012°58'917.3
2018-May-26 01:00N 45°04' E 013°09'917.1
2018-May-26 00:30N 44°59' E 013°18'917.7
2018-May-26 00:00N 44°51' E 013°26'918.0
2018-May-25 23:30N 44°44' E 013°32'917.9
2018-May-25 23:00N 44°37' E 013°40'917.5
2018-May-25 22:30N 44°30' E 013°47'816.9
2018-May-25 22:00N 44°22' E 013°53'916.9
2018-May-25 21:30N 44°15' E 013°60'1516.7
2018-May-25 20:36N 44°03' E 014°12'216.6
2018-May-25 20:30N 44°02' E 014°14'227 4.6
2018-May-23 18:38N 40°16' E 014°44'317.8
2018-May-23 18:26N 40°19' E 014°43'817.7
2018-May-23 17:59N 40°27' E 014°43'11 0.7
2018-May-23 03:30N 40°33' E 014°31'816.1
2018-May-23 03:00N 40°31' E 014°20'916.4
2018-May-23 02:28N 40°29' E 014°09'716.0
2018-May-23 02:01N 40°30' E 013°60'816.5
2018-May-23 01:31N 40°33' E 013°49'917.7
2018-May-23 01:00N 40°35' E 013°38'240 8.6
2018-May-21 20:59N 43°07' E 009°28'1020.3
2018-May-21 20:29N 43°08' E 009°14'1520.4
2018-May-21 19:45N 43°10' E 008°54'7120.2
2018-May-21 16:13N 43°21' E 007°17'419.5
2018-May-21 16:00N 43°23' E 007°12'919.1
2018-May-21 15:30N 43°28' E 007°01'4 7.1
2018-May-21 15:00N 43°32' E 007°01'0 0.1
2018-May-21 14:25N 43°32' E 007°01'0 0.0
2018-May-21 13:58N 43°32' E 007°01'0 0.0
2018-May-21 13:25N 43°32' E 007°01'0 0.0
2018-May-21 12:52N 43°32' E 007°01'0 0.1
2018-May-21 12:22N 43°32' E 007°01'0 0.0
2018-May-21 11:52N 43°32' E 007°01'0 0.0
2018-May-21 11:25N 43°32' E 007°01'0 0.0
2018-May-21 10:58N 43°32' E 007°01'0 0.0
2018-May-21 10:25N 43°32' E 007°01'0 0.0
2018-May-21 09:58N 43°32' E 007°01'0 0.0
2018-May-21 09:28N 43°32' E 007°01'0 0.0
2018-May-21 08:58N 43°32' E 007°01'0 0.1
2018-May-21 08:25N 43°32' E 007°01'0 0.1
2018-May-21 07:58N 43°32' E 007°01'0 0.0
2018-May-21 07:28N 43°32' E 007°01'0 0.0
2018-May-21 06:58N 43°32' E 007°01'0 0.9
2018-May-21 06:30N 43°32' E 007°01'5 9.9
2018-May-21 06:01N 43°27' E 006°58'24017.5
2018-May-20 16:19N 41°19' E 002°23'618.1
2018-May-20 15:59N 41°17' E 002°16'510.5
2018-May-20 15:30N 41°19' E 002°10'2 3.4
2018-May-20 14:59N 41°21' E 002°10'0 0.0
2018-May-20 14:29N 41°21' E 002°10'0 0.0
2018-May-20 13:59N 41°21' E 002°10'0 0.0
2018-May-20 13:29N 41°21' E 002°10'0 0.0
2018-May-20 12:59N 41°21' E 002°10'0 0.0
2018-May-20 12:26N 41°21' E 002°10'0 0.0
2018-May-20 11:59N 41°21' E 002°10'0 0.0
2018-May-20 11:29N 41°21' E 002°10'0 0.0
2018-May-20 10:59N 41°21' E 002°10'0 0.0
2018-May-20 10:29N 41°21' E 002°10'0 0.0
2018-May-20 09:59N 41°21' E 002°10'0 0.0
2018-May-20 09:29N 41°21' E 002°10'0 0.0
2018-May-20 08:59N 41°21' E 002°10'0 0.0
2018-May-20 08:29N 41°21' E 002°10'0 0.0
2018-May-20 07:59N 41°21' E 002°10'0 0.0
2018-May-20 07:29N 41°21' E 002°10'0 0.0
2018-May-20 06:59N 41°21' E 002°10'0 0.0
2018-May-20 06:29N 41°21' E 002°10'0 0.0
2018-May-20 05:59N 41°21' E 002°10'0 0.0
2018-May-20 05:29N 41°21' E 002°10'0 0.0
2018-May-20 04:59N 41°21' E 002°10'0 0.0
2018-May-20 04:29N 41°21' E 002°10'0 0.0
2018-May-20 03:55N 41°21' E 002°10'0 0.9
2018-May-20 03:31N 41°21' E 002°10'3 5.4
2018-May-20 03:01N 41°18' E 002°11'713.4
2018-May-20 02:30N 41°12' E 002°09'815.4
2018-May-20 02:00N 41°05' E 002°04'23015.2
2018-May-19 10:52N 37°43' W 000°19'615.5
2018-May-19 10:30N 37°39' W 000°24'815.7
2018-May-19 10:00N 37°32' W 000°29'915.7
2018-May-19 09:24N 37°26' W 000°38'615.6
2018-May-19 09:00N 37°22' W 000°44'815.7
2018-May-19 08:28N 37°16' W 000°52'221 8.3
2018-May-18 05:51N 36°03' W 005°13'721.2
2018-May-18 05:31N 35°59' W 005°19'70319.2
2018-May-16 16:48N 28°33' W 016°01'517.8
2018-May-16 16:30N 28°30' W 016°07'713.3
2018-May-16 16:01N 28°29' W 016°14'1 1.3
2018-May-16 15:28N 28°28' W 016°15'0 0.0
2018-May-16 14:58N 28°28' W 016°15'0 0.0
2018-May-16 14:28N 28°28' W 016°15'  
Track history (hours):
 
Tides and Currents Weather Stations Pressure Air Temp Water Temp Dewpoint Dewpoint Depression Visibility Wind Speed Wind Dir Waves Ship Positions

Rhapsody Of The Seas

Last reported at 2018-May-26 13:58 UTC. Time now 2018-May-26 14:02 UTC.
Position N 45°26' E 012°19'.

Type: Passenger vessel. MMSI: 311805000.

Date/timePositionNaut miles runAvg speedWind from/ knotsBaromVisibWave heightAir tempDewpointWater temp
2018-May-26 13:58N 45°26' E 012°19'0 0.0
2018-May-26 13:28N 45°26' E 012°19'0 0.0
2018-May-26 12:58N 45°26' E 012°19'0 0.0
2018-May-26 12:28N 45°26' E 012°19'0 0.0
2018-May-26 11:58N 45°26' E 012°19'0 0.0
2018-May-26 11:28N 45°26' E 012°19'0 0.0
2018-May-26 10:58N 45°26' E 012°19'0 0.0
2018-May-26 10:28N 45°26' E 012°19'0 0.0
2018-May-26 09:58N 45°26' E 012°19'0 0.0
2018-May-26 09:28N 45°26' E 012°19'0 0.0
2018-May-26 08:58N 45°26' E 012°19'0 0.0
2018-May-26 08:28N 45°26' E 012°19'0 0.0
2018-May-26 07:58N 45°26' E 012°19'0 0.0
2018-May-26 07:28N 45°26' E 012°19'0 0.0
2018-May-26 06:58N 45°26' E 012°19'0 0.0
2018-May-26 06:28N 45°26' E 012°19'0 0.0
2018-May-26 05:28N 45°26' E 012°19'0 0.0
2018-May-26 04:58N 45°26' E 012°19'0 0.3
2018-May-26 04:30N 45°26' E 012°19'1 2.8
2018-May-26 04:00N 45°26' E 012°21'3 5.6
2018-May-26 03:31N 45°26' E 012°24'612.0
2018-May-26 03:00N 45°23' E 012°32'714.6
2018-May-26 02:30N 45°18' E 012°39'815.2
2018-May-26 02:00N 45°13' E 012°48'917.2
2018-May-26 01:30N 45°09' E 012°58'917.3
2018-May-26 01:00N 45°04' E 013°09'917.1
2018-May-26 00:30N 44°59' E 013°18'917.7
2018-May-26 00:00N 44°51' E 013°26'918.0
2018-May-25 23:30N 44°44' E 013°32'917.9
2018-May-25 23:00N 44°37' E 013°40'917.5
2018-May-25 22:30N 44°30' E 013°47'816.9
2018-May-25 22:00N 44°22' E 013°53'916.9
2018-May-25 21:30N 44°15' E 013°60'1516.7
2018-May-25 20:36N 44°03' E 014°12'216.6
2018-May-25 20:30N 44°02' E 014°14'227 4.6
2018-May-23 18:38N 40°16' E 014°44'317.8
2018-May-23 18:26N 40°19' E 014°43'817.7
2018-May-23 17:59N 40°27' E 014°43'11 0.7
2018-May-23 03:30N 40°33' E 014°31'816.1
2018-May-23 03:00N 40°31' E 014°20'916.4
2018-May-23 02:28N 40°29' E 014°09'716.0
2018-May-23 02:01N 40°30' E 013°60'816.5
2018-May-23 01:31N 40°33' E 013°49'917.7
2018-May-23 01:00N 40°35' E 013°38'240 8.6
2018-May-21 20:59N 43°07' E 009°28'1020.3
2018-May-21 20:29N 43°08' E 009°14'1520.4
2018-May-21 19:45N 43°10' E 008°54'7120.2
2018-May-21 16:13N 43°21' E 007°17'419.5
2018-May-21 16:00N 43°23' E 007°12'919.1
2018-May-21 15:30N 43°28' E 007°01'4 7.1
2018-May-21 15:00N 43°32' E 007°01'0 0.1
2018-May-21 14:25N 43°32' E 007°01'0 0.0
2018-May-21 13:58N 43°32' E 007°01'0 0.0
2018-May-21 13:25N 43°32' E 007°01'0 0.0
2018-May-21 12:52N 43°32' E 007°01'0 0.1
2018-May-21 12:22N 43°32' E 007°01'0 0.0
2018-May-21 11:52N 43°32' E 007°01'0 0.0
2018-May-21 11:25N 43°32' E 007°01'0 0.0
2018-May-21 10:58N 43°32' E 007°01'0 0.0
2018-May-21 10:25N 43°32' E 007°01'0 0.0
2018-May-21 09:58N 43°32' E 007°01'0 0.0
2018-May-21 09:28N 43°32' E 007°01'0 0.0
2018-May-21 08:58N 43°32' E 007°01'0 0.1
2018-May-21 08:25N 43°32' E 007°01'0 0.1
2018-May-21 07:58N 43°32' E 007°01'0 0.0
2018-May-21 07:28N 43°32' E 007°01'0 0.0
2018-May-21 06:58N 43°32' E 007°01'0 0.9
2018-May-21 06:30N 43°32' E 007°01'5 9.9
2018-May-21 06:01N 43°27' E 006°58'24017.5
2018-May-20 16:19N 41°19' E 002°23'618.1
2018-May-20 15:59N 41°17' E 002°16'510.5
2018-May-20 15:30N 41°19' E 002°10'2 3.4
2018-May-20 14:59N 41°21' E 002°10'0 0.0
2018-May-20 14:29N 41°21' E 002°10'0 0.0
2018-May-20 13:59N 41°21' E 002°10'0 0.0
2018-May-20 13:29N 41°21' E 002°10'0 0.0
2018-May-20 12:59N 41°21' E 002°10'0 0.0
2018-May-20 12:26N 41°21' E 002°10'0 0.0
2018-May-20 11:59N 41°21' E 002°10'0 0.0
2018-May-20 11:29N 41°21' E 002°10'0 0.0
2018-May-20 10:59N 41°21' E 002°10'0 0.0
2018-May-20 10:29N 41°21' E 002°10'0 0.0
2018-May-20 09:59N 41°21' E 002°10'0 0.0
2018-May-20 09:29N 41°21' E 002°10'0 0.0
2018-May-20 08:59N 41°21' E 002°10'0 0.0
2018-May-20 08:29N 41°21' E 002°10'0 0.0
2018-May-20 07:59N 41°21' E 002°10'0 0.0
2018-May-20 07:29N 41°21' E 002°10'0 0.0
2018-May-20 06:59N 41°21' E 002°10'0 0.0
2018-May-20 06:29N 41°21' E 002°10'0 0.0
2018-May-20 05:59N 41°21' E 002°10'0 0.0
2018-May-20 05:29N 41°21' E 002°10'0 0.0
2018-May-20 04:59N 41°21' E 002°10'0 0.0
2018-May-20 04:29N 41°21' E 002°10'0 0.0
2018-May-20 03:55N 41°21' E 002°10'0 0.9
2018-May-20 03:31N 41°21' E 002°10'3 5.4
2018-May-20 03:01N 41°18' E 002°11'713.4
2018-May-20 02:30N 41°12' E 002°09'815.4
2018-May-20 02:00N 41°05' E 002°04'23015.2
2018-May-19 10:52N 37°43' W 000°19'615.5
2018-May-19 10:30N 37°39' W 000°24'815.7
2018-May-19 10:00N 37°32' W 000°29'915.7
2018-May-19 09:24N 37°26' W 000°38'615.6
2018-May-19 09:00N 37°22' W 000°44'815.7
2018-May-19 08:28N 37°16' W 000°52'221 8.3
2018-May-18 05:51N 36°03' W 005°13'721.2
2018-May-18 05:31N 35°59' W 005°19'70319.2
2018-May-16 16:48N 28°33' W 016°01'517.8
2018-May-16 16:30N 28°30' W 016°07'713.3
2018-May-16 16:01N 28°29' W 016°14'1 1.3
2018-May-16 15:28N 28°28' W 016°15'0 0.0
2018-May-16 14:58N 28°28' W 016°15'0 0.0
2018-May-16 14:28N 28°28' W 016°15'  

Dump ship's entire track history